createdAt,value
2023-01-04T00:00:00.354Z,2.78
2023-01-04T00:02:29.349Z,2.68
2023-01-04T00:04:57.824Z,2.56
2023-01-04T00:07:26.333Z,2.44
2023-01-04T00:09:54.715Z,2.38
2023-01-04T00:12:23.675Z,2.31
2023-01-04T00:14:51.916Z,2.25
2023-01-04T00:17:20.241Z,2.18
2023-01-04T00:19:48.634Z,2.10
2023-01-04T00:22:16.906Z,2.03
2023-01-04T00:24:45.634Z,1.97
2023-01-04T00:27:13.963Z,1.89
2023-01-04T00:29:42.183Z,1.81
2023-01-04T00:32:10.481Z,1.73
2023-01-04T00:34:38.811Z,1.66
2023-01-04T00:37:07.675Z,1.62
2023-01-04T00:39:35.927Z,1.59
2023-01-04T00:42:07.214Z,1.52
2023-01-04T00:44:35.816Z,1.46
2023-01-04T00:47:04.897Z,1.39
2023-01-04T00:49:33.433Z,1.34
2023-01-04T00:52:02.026Z,1.29
2023-01-04T00:54:30.484Z,1.24
2023-01-04T00:56:59.015Z,1.19
2023-01-04T00:59:27.852Z,1.17
2023-01-04T01:01:56.308Z,1.14
2023-01-04T01:04:24.962Z,1.11
2023-01-04T01:06:53.409Z,1.04
2023-01-04T01:09:24.893Z,0.99
2023-01-04T01:11:54.095Z,0.93
2023-01-04T01:14:25.226Z,0.89
2023-01-04T01:16:57.703Z,0.87
2023-01-04T01:19:29.686Z,0.86
2023-01-04T01:21:58.559Z,0.84
2023-01-04T01:24:27.656Z,0.81
2023-01-04T01:26:56.761Z,0.77
2023-01-04T01:29:25.417Z,0.72
2023-01-04T01:31:54.508Z,0.66
2023-01-04T01:34:23.044Z,0.62
2023-01-04T01:36:51.359Z,0.57
2023-01-04T01:39:19.871Z,0.53
2023-01-04T01:41:48.373Z,0.49
2023-01-04T01:44:45.295Z,0.42
2023-01-04T01:47:31.139Z,0.34
2023-01-04T01:50:01.121Z,0.27
2023-01-04T01:52:38.019Z,0.23
2023-01-04T01:55:10.676Z,0.17
2023-01-04T01:57:39.973Z,0.10
2023-01-04T02:00:12.878Z,0.02
2023-01-04T02:03:03.885Z,-0.06
2023-01-04T02:05:34.197Z,-0.11
2023-01-04T02:08:03.856Z,-0.16
2023-01-04T02:10:33.155Z,-0.20
2023-01-04T02:13:08.132Z,-0.26
2023-01-04T02:16:19.890Z,-0.31
2023-01-04T02:19:05.891Z,-0.39
2023-01-04T02:22:03.111Z,-0.46
2023-01-04T02:25:00.239Z,-0.51
2023-01-04T02:27:53.393Z,-0.53
2023-01-04T02:30:44.831Z,-0.54
2023-01-04T02:33:28.434Z,-0.58
2023-01-04T02:36:22.543Z,-0.61
2023-01-04T02:39:10.476Z,-0.62
2023-01-04T02:41:41.807Z,-0.65
2023-01-04T02:44:37.685Z,-0.67
2023-01-04T02:47:12.672Z,-0.69
2023-01-04T02:50:04.528Z,-0.68
2023-01-04T02:52:34.074Z,-0.71
2023-01-04T02:55:06.908Z,-0.73
2023-01-04T02:57:55.690Z,-0.75
2023-01-04T03:01:17.050Z,-0.75
2023-01-04T03:04:19.716Z,-0.74
2023-01-04T03:07:11.369Z,-0.71
2023-01-04T03:09:44.682Z,-0.68
2023-01-04T03:12:32.143Z,-0.64
2023-01-04T03:15:18.229Z,-0.59
2023-01-04T03:17:59.910Z,-0.53
2023-01-04T03:20:32.424Z,-0.49
2023-01-04T03:23:26.902Z,-0.45
2023-01-04T03:26:27.296Z,-0.41
2023-01-04T03:29:22.946Z,-0.39
2023-01-04T03:32:36.529Z,-0.37
2023-01-04T03:35:23.716Z,-0.35
2023-01-04T03:38:17.288Z,-0.33
2023-01-04T03:41:13.442Z,-0.33
2023-01-04T03:44:09.108Z,-0.33
2023-01-04T03:47:10.268Z,-0.34
2023-01-04T03:49:57.430Z,-0.38
2023-01-04T03:52:28.530Z,-0.41
2023-01-04T03:54:59.006Z,-0.43
2023-01-04T03:57:27.820Z,-0.44
2023-01-04T04:00:03.107Z,-0.45
2023-01-04T04:02:34.937Z,-0.45
2023-01-04T04:05:22.978Z,-0.46
2023-01-04T04:08:09.947Z,-0.49
2023-01-04T04:10:38.209Z,-0.55
2023-01-04T04:13:06.516Z,-0.62
2023-01-04T04:15:36.775Z,-0.69
2023-01-04T04:18:05.128Z,-0.75
2023-01-04T04:20:33.550Z,-0.80
2023-01-04T04:23:02.009Z,-0.89
2023-01-04T04:25:30.417Z,-0.95
2023-01-04T04:27:58.744Z,-0.99
2023-01-04T04:30:27.015Z,-1.02
2023-01-04T04:32:56.171Z,-1.04
2023-01-04T04:35:24.603Z,-1.06
2023-01-04T04:37:52.900Z,-1.06
2023-01-04T04:40:39.690Z,-1.04
2023-01-04T04:43:09.323Z,-1.02
2023-01-04T04:45:37.655Z,-1.00
2023-01-04T04:48:06.091Z,-1.00
2023-01-04T04:50:34.438Z,-1.00
2023-01-04T04:53:02.779Z,-1.03
2023-01-04T04:55:33.346Z,-1.07
2023-01-04T04:58:01.679Z,-1.12
2023-01-04T05:00:29.998Z,-1.16
2023-01-04T05:02:59.495Z,-1.19
2023-01-04T05:05:28.462Z,-1.21
2023-01-04T05:07:56.736Z,-1.23
2023-01-04T05:10:25.039Z,-1.26
2023-01-04T05:13:02.205Z,-1.27
2023-01-04T05:15:32.926Z,-1.29
2023-01-04T05:18:01.695Z,-1.30
2023-01-04T05:20:30.063Z,-1.31
2023-01-04T05:22:58.482Z,-1.31
2023-01-04T05:25:27.218Z,-1.31
2023-01-04T05:27:56.473Z,-1.31
2023-01-04T05:30:44.021Z,-1.32
2023-01-04T05:33:12.642Z,-1.36
2023-01-04T05:35:41.109Z,-1.41
2023-01-04T05:38:09.418Z,-1.46
2023-01-04T05:40:37.975Z,-1.49
2023-01-04T05:43:06.475Z,-1.53
2023-01-04T05:45:35.567Z,-1.54
2023-01-04T05:48:04.105Z,-1.55
2023-01-04T05:50:32.589Z,-1.57
2023-01-04T05:53:06.912Z,-1.58
2023-01-04T05:55:35.255Z,-1.60
2023-01-04T05:58:04.037Z,-1.63
2023-01-04T06:00:32.457Z,-1.68
2023-01-04T06:03:01.136Z,-1.70
2023-01-04T06:05:29.689Z,-1.71
2023-01-04T06:07:58.068Z,-1.72
2023-01-04T06:10:26.362Z,-1.76
2023-01-04T06:12:54.725Z,-1.80
2023-01-04T06:15:23.216Z,-1.84
2023-01-04T06:17:51.630Z,-1.87
2023-01-04T06:20:20.065Z,-1.90
2023-01-04T06:22:48.567Z,-1.89
2023-01-04T06:25:17.414Z,-1.87
2023-01-04T06:27:45.923Z,-1.86
2023-01-04T06:30:14.418Z,-1.84
2023-01-04T06:32:43.561Z,-1.82
2023-01-04T06:35:12.073Z,-1.80
2023-01-04T06:37:40.805Z,-1.78
2023-01-04T06:40:11.219Z,-1.76
2023-01-04T06:42:45.389Z,-1.75
2023-01-04T06:45:15.590Z,-1.73
2023-01-04T06:47:44.140Z,-1.71
2023-01-04T06:50:14.714Z,-1.70
2023-01-04T06:52:43.319Z,-1.69
2023-01-04T06:55:11.840Z,-1.68
2023-01-04T06:57:42.299Z,-1.68
2023-01-04T07:00:11.383Z,-1.70
2023-01-04T07:02:39.932Z,-1.74
2023-01-04T07:05:28.317Z,-1.76
2023-01-04T07:08:07.350Z,-1.75
2023-01-04T07:10:36.835Z,-1.73
2023-01-04T07:13:05.936Z,-1.72
2023-01-04T07:15:39.220Z,-1.70
2023-01-04T07:18:10.283Z,-1.69
2023-01-04T07:20:39.291Z,-1.65
2023-01-04T07:23:09.335Z,-1.60
2023-01-04T07:25:37.849Z,-1.51
2023-01-04T07:28:06.515Z,-1.46
2023-01-04T07:30:34.912Z,-1.42
2023-01-04T07:33:03.507Z,-1.35
2023-01-04T07:35:31.848Z,-1.30
2023-01-04T07:38:00.337Z,-1.27
2023-01-04T07:40:28.926Z,-1.22
2023-01-04T07:42:58.946Z,-1.16
2023-01-04T07:45:27.885Z,-1.09
2023-01-04T07:47:57.824Z,-1.00
2023-01-04T07:50:26.296Z,-0.92
2023-01-04T07:52:55.034Z,-0.85
2023-01-04T07:55:23.416Z,-0.79
2023-01-04T07:57:53.413Z,-0.72
2023-01-04T08:00:21.881Z,-0.64
2023-01-04T08:02:50.482Z,-0.56
2023-01-04T08:05:25.028Z,-0.50
2023-01-04T08:07:53.448Z,-0.43
2023-01-04T08:10:22.012Z,-0.36
2023-01-04T08:12:50.415Z,-0.30
2023-01-04T08:15:19.677Z,-0.23
2023-01-04T08:17:48.047Z,-0.16
2023-01-04T08:20:16.590Z,-0.08
2023-01-04T08:22:45.015Z,0.01
2023-01-04T08:25:14.149Z,0.10
2023-01-04T08:27:42.547Z,0.20
2023-01-04T08:30:11.292Z,0.32
2023-01-04T08:32:40.732Z,0.40
2023-01-04T08:35:09.233Z,0.50
2023-01-04T08:37:37.639Z,0.58
2023-01-04T08:40:06.670Z,0.68
2023-01-04T08:42:35.081Z,0.79
2023-01-04T08:45:03.885Z,0.90
2023-01-04T08:47:33.098Z,1.01
2023-01-04T08:50:08.244Z,1.12
2023-01-04T08:52:39.047Z,1.24
2023-01-04T08:55:12.696Z,1.37
2023-01-04T08:57:42.431Z,1.51
2023-01-04T09:00:11.521Z,1.63
2023-01-04T09:02:40.186Z,1.78
2023-01-04T09:05:09.040Z,1.94
2023-01-04T09:07:37.552Z,2.10
2023-01-04T09:10:06.327Z,2.28
2023-01-04T09:12:34.715Z,2.49
2023-01-04T09:15:03.535Z,2.70
2023-01-04T09:17:31.887Z,2.91
2023-01-04T09:20:00.627Z,3.10
2023-01-04T09:22:31.550Z,3.28
2023-01-04T09:25:00.043Z,3.47
2023-01-04T09:27:28.547Z,3.64
2023-01-04T09:29:56.963Z,3.82
2023-01-04T09:32:25.896Z,4.00
2023-01-04T09:34:56.371Z,4.20
2023-01-04T09:37:24.769Z,4.38
2023-01-04T09:39:53.090Z,4.55
2023-01-04T09:42:35.046Z,4.74
2023-01-04T09:45:27.086Z,4.91
2023-01-04T09:48:10.537Z,5.10
2023-01-04T09:51:03.917Z,5.28
2023-01-04T09:53:44.528Z,5.42
2023-01-04T09:56:31.578Z,5.58
2023-01-04T09:59:09.417Z,5.74
2023-01-04T10:01:50.105Z,5.89
2023-01-04T10:04:44.764Z,6.03
2023-01-04T10:07:29.089Z,6.18
2023-01-04T10:09:58.675Z,6.32
2023-01-04T10:12:42.241Z,6.47
2023-01-04T10:15:21.498Z,6.62
2023-01-04T10:20:16.347Z,6.77
2023-01-04T10:23:57.317Z,7.17
2023-01-04T10:26:50.317Z,7.35
2023-01-04T10:29:37.166Z,7.54
2023-01-04T10:32:13.214Z,7.71
2023-01-04T10:34:47.827Z,7.84
2023-01-04T10:37:21.129Z,7.97
2023-01-04T10:39:55.777Z,8.06
2023-01-04T10:42:26.994Z,8.11
2023-01-04T10:45:23.215Z,8.15
2023-01-04T10:48:05.536Z,8.22
2023-01-04T10:50:42.479Z,8.32
2023-01-04T10:53:37.542Z,8.39
2023-01-04T10:56:25.088Z,8.50
2023-01-04T10:59:18.444Z,8.60
2023-01-04T11:02:06.996Z,8.74
2023-01-04T11:04:42.720Z,8.88
2023-01-04T11:07:20.458Z,9.02
2023-01-04T11:09:57.887Z,9.15
2023-01-04T11:12:26.618Z,9.29
2023-01-04T11:14:55.015Z,9.41
2023-01-04T11:17:25.102Z,9.49
2023-01-04T11:19:54.553Z,9.54
2023-01-04T11:22:36.805Z,9.61
2023-01-04T11:25:35.544Z,9.66
2023-01-04T11:28:23.112Z,9.77
2023-01-04T11:31:09.871Z,9.93
2023-01-04T11:33:56.458Z,10.03
2023-01-04T11:36:44.130Z,10.07
2023-01-04T11:39:24.826Z,10.14
2023-01-04T11:42:02.618Z,10.21
2023-01-04T11:44:34.055Z,10.22
2023-01-04T11:47:20.600Z,10.20
2023-01-04T11:49:51.721Z,10.19
2023-01-04T11:52:37.561Z,10.14
2023-01-04T11:55:26.304Z,10.00
2023-01-04T11:58:11.273Z,9.84
2023-01-04T12:00:54.347Z,9.70
2023-01-04T12:03:34.512Z,9.57
2023-01-04T12:06:18.534Z,9.46
2023-01-04T12:08:48.061Z,9.33
2023-01-04T12:11:28.226Z,9.31
2023-01-04T12:14:00.800Z,9.37
2023-01-04T12:16:56.975Z,9.46
2023-01-04T12:19:25.849Z,9.56
2023-01-04T12:21:58.430Z,9.64
2023-01-04T12:24:30.092Z,9.73
2023-01-04T12:26:59.694Z,9.76
2023-01-04T12:29:42.965Z,9.70
2023-01-04T12:32:11.190Z,9.68
2023-01-04T12:34:45.957Z,9.66
2023-01-04T12:37:51.269Z,9.65
2023-01-04T12:40:47.960Z,9.61
2023-01-04T12:43:16.260Z,9.59
2023-01-04T12:45:47.012Z,9.61
2023-01-04T12:48:45.879Z,9.62
2023-01-04T12:51:37.358Z,9.60
2023-01-04T12:54:23.267Z,9.58
2023-01-04T12:57:09.726Z,9.56
2023-01-04T12:59:53.270Z,9.55
2023-01-04T13:02:28.946Z,9.54
2023-01-04T13:05:53.161Z,9.55
2023-01-04T13:07:58.797Z,9.55
2023-01-04T13:10:36.633Z,9.55
2023-01-04T13:13:29.635Z,9.53
2023-01-04T13:16:07.149Z,9.49
2023-01-04T13:18:43.308Z,9.41
2023-01-04T13:21:28.287Z,9.35
2023-01-04T13:23:59.985Z,9.27
2023-01-04T13:26:40.548Z,9.20
2023-01-04T13:29:15.867Z,9.12
2023-01-04T13:31:53.289Z,9.04
2023-01-04T13:34:21.710Z,8.97
2023-01-04T13:37:27.529Z,8.90
2023-01-04T13:40:20.845Z,8.82
2023-01-04T13:43:28.956Z,8.75
2023-01-04T13:46:19.296Z,8.68
2023-01-04T13:48:50.927Z,8.62
2023-01-04T13:51:36.170Z,8.56
2023-01-04T13:54:17.044Z,8.50
2023-01-04T13:56:51.416Z,8.44
2023-01-04T13:59:23.329Z,8.39
2023-01-04T14:01:53.139Z,8.34
2023-01-04T14:04:30.612Z,8.29
2023-01-04T14:07:01.634Z,8.24
2023-01-04T14:09:42.504Z,8.19
2023-01-04T14:12:17.894Z,8.13
2023-01-04T14:15:01.161Z,8.07
2023-01-04T14:17:36.299Z,7.99
2023-01-04T14:20:26.696Z,7.92
2023-01-04T14:22:57.055Z,7.87
2023-01-04T14:25:42.009Z,7.82
2023-01-04T14:28:19.728Z,7.77
2023-01-04T14:30:52.664Z,7.74
2023-01-04T14:33:26.304Z,7.70
2023-01-04T14:36:06.452Z,7.66
2023-01-04T14:38:50.891Z,7.61
2023-01-04T14:41:31.405Z,7.56
2023-01-04T14:43:59.766Z,7.50
2023-01-04T14:46:30.264Z,7.46
2023-01-04T14:48:59.176Z,7.42
2023-01-04T14:51:42.208Z,7.39
2023-01-04T14:54:13.751Z,7.35
2023-01-04T14:56:43.802Z,7.32
2023-01-04T14:59:12.637Z,7.30
2023-01-04T15:01:41.001Z,7.28
2023-01-04T15:04:09.475Z,7.26
2023-01-04T15:06:47.755Z,7.24
2023-01-04T15:09:25.636Z,7.22
2023-01-04T15:11:55.439Z,7.22
2023-01-04T15:14:24.176Z,7.25
2023-01-04T15:16:52.537Z,7.28
2023-01-04T15:19:21.390Z,7.33
2023-01-04T15:21:53.232Z,7.36
2023-01-04T15:24:21.714Z,7.37
2023-01-04T15:26:50.122Z,7.39
2023-01-04T15:29:18.497Z,7.41
2023-01-04T15:31:46.938Z,7.41
2023-01-04T15:34:15.418Z,7.41
2023-01-04T15:36:44.240Z,7.40
2023-01-04T15:39:15.755Z,7.41
2023-01-04T15:42:02.829Z,7.41
2023-01-04T15:44:31.348Z,7.39
2023-01-04T15:47:00.093Z,7.38
2023-01-04T15:49:31.810Z,7.39
2023-01-04T15:52:00.166Z,7.40
2023-01-04T15:54:28.898Z,7.41
2023-01-04T15:56:57.624Z,7.43
2023-01-04T15:59:26.595Z,7.43
2023-01-04T16:01:55.062Z,7.44
2023-01-04T16:04:23.696Z,7.43
2023-01-04T16:06:52.350Z,7.43
2023-01-04T16:09:20.762Z,7.42
2023-01-04T16:12:07.969Z,7.41
2023-01-04T16:14:36.459Z,7.40
2023-01-04T16:17:04.838Z,7.39
2023-01-04T16:19:34.316Z,7.38
2023-01-04T16:22:02.705Z,7.37
2023-01-04T16:25:09.183Z,7.38
2023-01-04T16:27:19.652Z,7.37
2023-01-04T16:29:51.035Z,7.38
2023-01-04T16:32:20.271Z,7.37
2023-01-04T16:34:50.643Z,7.35
2023-01-04T16:37:19.312Z,7.35
2023-01-04T16:40:07.757Z,7.35
2023-01-04T16:42:40.312Z,7.33
2023-01-04T16:45:09.589Z,7.33
2023-01-04T16:47:41.159Z,7.33
2023-01-04T16:50:13.040Z,7.33
2023-01-04T16:52:41.711Z,7.34
2023-01-04T16:55:11.063Z,7.35
2023-01-04T16:57:39.414Z,7.37
2023-01-04T17:00:08.574Z,7.37
2023-01-04T17:02:37.114Z,7.38
2023-01-04T17:05:05.842Z,7.40
2023-01-04T17:07:34.660Z,7.41
2023-01-04T17:10:03.221Z,7.43
2023-01-04T17:12:48.496Z,7.44
2023-01-04T17:18:07.093Z,7.46
2023-01-04T17:20:35.874Z,7.46
2023-01-04T17:23:04.683Z,7.49
2023-01-04T17:25:33.119Z,7.52
2023-01-04T17:28:01.740Z,7.54
2023-01-04T17:30:39.428Z,7.57
2023-01-04T17:33:19.467Z,7.59
2023-01-04T17:35:47.986Z,7.60
2023-01-04T17:38:17.133Z,7.61
2023-01-04T17:40:45.429Z,7.65
2023-01-04T17:43:14.324Z,7.64
2023-01-04T17:45:43.795Z,7.66
2023-01-04T17:48:12.249Z,7.67
2023-01-04T17:50:40.655Z,7.66
2023-01-04T17:53:11.688Z,7.65
2023-01-04T17:55:39.982Z,7.64
2023-01-04T17:58:11.720Z,7.64
2023-01-04T18:00:41.511Z,7.65
2023-01-04T18:03:09.973Z,7.66
2023-01-04T18:05:51.300Z,7.68
2023-01-04T18:08:21.748Z,7.69
2023-01-04T18:11:06.917Z,7.68
2023-01-04T18:13:37.677Z,7.69
2023-01-04T18:16:23.892Z,7.71
2023-01-04T18:18:55.066Z,7.72
2023-01-04T18:21:28.928Z,7.73
2023-01-04T18:29:38.475Z,7.80
2023-01-04T18:32:06.970Z,7.82
2023-01-04T18:34:35.476Z,7.83
2023-01-04T18:37:06.855Z,7.84
2023-01-04T18:39:35.239Z,7.85
2023-01-04T18:42:03.895Z,7.85
2023-01-04T18:44:34.879Z,7.85
2023-01-04T18:47:04.068Z,7.84
2023-01-04T18:49:32.519Z,7.83
2023-01-04T18:52:01.313Z,7.82
2023-01-04T18:54:31.786Z,7.82
2023-01-04T18:57:01.300Z,7.81
2023-01-04T18:59:30.496Z,7.81
2023-01-04T19:02:01.600Z,7.82
2023-01-04T19:04:35.562Z,7.82
2023-01-04T19:07:04.069Z,7.83
2023-01-04T19:09:32.569Z,7.82
2023-01-04T19:12:02.145Z,7.82
2023-01-04T19:14:45.001Z,7.83
2023-01-04T19:17:13.710Z,7.83
2023-01-04T19:19:43.349Z,7.83
2023-01-04T19:22:13.066Z,7.83
2023-01-04T19:24:42.438Z,7.83
2023-01-04T19:27:12.686Z,7.82
2023-01-04T19:29:44.438Z,7.81
2023-01-04T19:32:14.128Z,7.79
2023-01-04T19:34:43.248Z,7.77
2023-01-04T19:37:13.291Z,7.74
2023-01-04T19:39:42.346Z,7.73
2023-01-04T19:42:10.736Z,7.72
2023-01-04T19:44:39.662Z,7.72
2023-01-04T19:47:14.506Z,7.71
2023-01-04T19:49:52.760Z,7.71
2023-01-04T19:52:21.148Z,7.70
2023-01-04T19:54:50.814Z,7.70
2023-01-04T19:57:19.127Z,7.70
2023-01-04T19:59:47.698Z,7.71
2023-01-04T20:02:16.561Z,7.72
2023-01-04T20:04:46.413Z,7.75
2023-01-04T20:07:15.174Z,7.79
2023-01-04T20:09:46.045Z,7.83
2023-01-04T20:12:16.660Z,7.87
2023-01-04T20:14:47.063Z,7.90
2023-01-04T20:17:15.634Z,7.94
2023-01-04T20:19:44.240Z,7.99
2023-01-04T20:22:13.299Z,8.02
2023-01-04T20:24:42.163Z,8.03
2023-01-04T20:27:10.691Z,8.06
2023-01-04T20:29:39.631Z,8.08
2023-01-04T20:32:08.053Z,8.10
2023-01-04T20:34:36.550Z,8.12
2023-01-04T20:37:04.912Z,8.15
2023-01-04T20:39:33.903Z,8.17
2023-01-04T20:42:21.108Z,8.19
2023-01-04T20:44:49.560Z,8.21
2023-01-04T20:47:17.917Z,8.21
2023-01-04T20:49:49.202Z,8.20
2023-01-04T20:56:37.696Z,8.20
2023-01-04T20:59:07.098Z,8.19
2023-01-04T21:01:36.768Z,8.19
2023-01-04T21:04:05.777Z,8.19
2023-01-04T21:06:34.914Z,8.19
2023-01-04T21:09:03.288Z,8.19
2023-01-04T21:11:31.630Z,8.21
2023-01-04T21:14:01.795Z,8.22
2023-01-04T21:16:30.201Z,8.24
2023-01-04T21:18:58.978Z,8.27
2023-01-04T21:21:27.306Z,8.32
2023-01-04T21:23:58.115Z,8.36
2023-01-04T21:26:26.622Z,8.39
2023-01-04T21:28:54.953Z,8.41
2023-01-04T21:31:25.075Z,8.47
2023-01-04T21:33:54.447Z,8.50
2023-01-04T21:36:27.331Z,8.53
2023-01-04T21:38:58.520Z,8.55
2023-01-04T21:41:27.191Z,8.56
2023-01-04T21:43:57.736Z,8.58
2023-01-04T21:46:27.323Z,8.60
2023-01-04T21:48:59.243Z,8.63
2023-01-04T21:51:29.113Z,8.65
2023-01-04T21:53:57.763Z,8.68
2023-01-04T21:56:26.136Z,8.70
2023-01-04T21:58:54.496Z,8.71
2023-01-04T22:01:32.678Z,8.73
2023-01-04T22:04:05.469Z,8.75
2023-01-04T22:06:37.380Z,8.76
2023-01-04T22:09:07.198Z,8.78
2023-01-04T22:11:35.719Z,8.78
2023-01-04T22:14:04.927Z,8.80
2023-01-04T22:16:33.368Z,8.81
2023-01-04T22:19:01.794Z,8.83
2023-01-04T22:21:30.815Z,8.84
2023-01-04T22:23:59.603Z,8.84
2023-01-04T22:26:28.023Z,8.84
2023-01-04T22:28:56.374Z,8.85
2023-01-04T22:31:24.813Z,8.85
2023-01-04T22:33:53.140Z,8.87
2023-01-04T22:36:23.279Z,8.88
2023-01-04T22:38:53.428Z,8.89
2023-01-04T22:41:24.519Z,8.90
2023-01-04T22:44:10.982Z,8.90
2023-01-04T22:46:39.517Z,8.89
2023-01-04T22:49:07.845Z,8.88
2023-01-04T22:51:36.281Z,8.88
2023-01-04T22:54:05.864Z,8.88
2023-01-04T22:56:34.292Z,8.89
2023-01-04T22:59:03.846Z,8.90
2023-01-04T23:01:34.394Z,8.90
2023-01-04T23:04:03.194Z,8.91
2023-01-04T23:06:32.750Z,8.91
2023-01-04T23:09:07.933Z,8.93
2023-01-04T23:11:37.394Z,8.95
2023-01-04T23:14:08.064Z,8.97
2023-01-04T23:16:36.578Z,8.99
2023-01-04T23:19:06.702Z,9.00
2023-01-04T23:21:35.597Z,9.02
2023-01-04T23:24:06.215Z,9.04
2023-01-04T23:26:34.686Z,9.07
2023-01-04T23:29:03.737Z,9.09
2023-01-04T23:31:33.474Z,9.10
2023-01-04T23:34:04.694Z,9.11
2023-01-04T23:36:36.121Z,9.11
2023-01-04T23:39:08.599Z,9.12
2023-01-04T23:41:46.515Z,9.12
2023-01-04T23:44:27.158Z,9.12
2023-01-04T23:47:00.651Z,9.12
2023-01-04T23:49:31.438Z,9.12
2023-01-04T23:52:01.034Z,9.12
2023-01-04T23:54:30.041Z,9.12
2023-01-04T23:56:59.794Z,9.13
2023-01-04T23:59:28.470Z,9.15
